This is the latest recevied weather packets stored in our database for station/object BAGASKAR. If no packets are shown the sender has not sent any weather packets the latest 1 day(s).
| Time | Temp. | Humidity | Pressure | Rain* | Wind** | Luminosity | Snow |
|---|---|---|---|---|---|---|---|
| 1778008039 | 5.56° C | 63% | 1007.8 hPa | - | 5.81 m/s, 296° | - | - |
| 1778006839 | 6.11° C | 73% | 1007.7 hPa | - | 5.81 m/s, 285° | - | - |
| 1778005639 | 5.56° C | 98% | 1007.4 hPa | - | 7.6 m/s, 269° | - | - |
| 1778004439 | 5.56° C | 100% | 1007.1 hPa | - | 8.49 m/s, 262° | - | - |
| 1778003239 | 5.56° C | 100% | 1007 hPa | - | 8.49 m/s, 260° | - | - |
| 1778002038 | 6.11° C | 98% | 1006.9 hPa | - | 9.83 m/s, 261° | - | - |
| 1778000838 | 6.11° C | 96% | 1006.8 hPa | - | 9.39 m/s, 261° | - | - |
| 1777999638 | 6.67° C | 96% | 1006.8 hPa | - | 9.39 m/s, 261° | - | - |
| 1777998439 | 6.67° C | 94% | 1006.8 hPa | - | 8.05 m/s, 266° | - | - |
| 1777997239 | 7.78° C | 89% | 1006.7 hPa | - | 9.39 m/s, 258° | - | - |
| 1777996039 | 8.33° C | 79% | 1006.6 hPa | - | 9.39 m/s, 260° | - | - |
| 1777994838 | 8.33° C | 70% | 1006.5 hPa | - | 9.39 m/s, 259° | - | - |
| 1777993638 | 8.89° C | 49% | 1006.3 hPa | - | 8.05 m/s, 267° | - | - |
| 1777992438 | 8.89° C | 77% | 1006.2 hPa | - | 8.49 m/s, 257° | - | - |
| 1777991238 | 8.33° C | 80% | 1006.1 hPa | - | 9.83 m/s, 255° | - | - |
| 1777990038 | 8.89° C | 75% | 1005.9 hPa | - | 10.28 m/s, 257° | - | - |
| 1777988838 | 9.44° C | 76% | 1005.8 hPa | - | 9.39 m/s, 254° | - | - |
| 1777987638 | 10° C | 72% | 1005.7 hPa | - | 9.83 m/s, 258° | - | - |
| 1777986438 | 9.44° C | 79% | 1005.6 hPa | - | 10.73 m/s, 254° | - | - |
| 1777985238 | 9.44° C | 78% | 1005.4 hPa | - | 10.73 m/s, 253° | - | - |
| 1777984037 | 9.44° C | 78% | 1005.2 hPa | - | 9.83 m/s, 251° | - | - |
| 1777982837 | 10° C | 71% | 1005 hPa | - | 10.73 m/s, 252° | - | - |
| 1777981638 | 9.44° C | 81% | 1004.9 hPa | - | 10.73 m/s, 253° | - | - |
| 1777980438 | 9.44° C | 83% | 1004.7 hPa | - | 9.83 m/s, 253° | - | - |
| 1777979237 | 9.44° C | 91% | 1004.5 hPa | - | 10.28 m/s, 255° | - | - |
* Rain since midnight (hover to see other rain measurements)
** Current wind speed in m/s (hover to see current wind gust speed)